Time;durP1;ratioP1;P1;durP2;ratioP2;P2;SDS_P1;SDS_P2;PMS_P1;PMS_P2;Temp;Humidity;BMP_temperature;BMP_pressure;BME280_temperature;BME280_humidity;BME280_pressure;Samples;Min_cycle;Max_cycle;Signal;HPM_P1;HPM_P2
2021/04/17 00:01:49;;;;;;;1999.90;999.90;;;18.10;74.70;;;;;;5049886;28;20196;-42
2021/04/17 00:04:16;;;;;;;1999.90;999.90;;;18.10;74.70;;;;;;5048453;28;20588;-53
2021/04/17 00:06:43;;;;;;;1999.90;999.90;;;18.10;74.40;;;;;;5049849;28;20682;-54
2021/04/17 00:09:13;;;;;;;1999.90;999.90;;;17.90;73.80;;;;;;5049745;28;20658;-40
2021/04/17 00:11:42;;;;;;;1999.90;999.90;;;17.90;74.00;;;;;;5049765;28;20193;-58
2021/04/17 00:14:14;;;;;;;1999.90;999.90;;;17.90;74.30;;;;;;5049729;28;20615;-46
2021/04/17 00:16:41;;;;;;;1999.90;999.90;;;17.80;74.40;;;;;;5052419;28;20161;-49
2021/04/17 00:19:08;;;;;;;1999.90;999.90;;;17.80;74.50;;;;;;5052873;28;20311;-50
2021/04/17 00:21:35;;;;;;;1999.90;999.90;;;17.90;74.60;;;;;;5053219;28;20256;-59
2021/04/17 00:24:02;;;;;;;1999.90;999.90;;;17.80;74.20;;;;;;5053289;28;20270;-40
2021/04/17 00:26:30;;;;;;;1999.90;999.90;;;17.90;74.20;;;;;;5053418;28;20254;-52
2021/04/17 00:28:58;;;;;;;1999.90;999.90;;;17.90;74.70;;;;;;5053034;28;20513;-41
2021/04/17 00:31:25;;;;;;;1999.90;999.90;;;17.80;74.40;;;;;;5052952;28;20628;-54
2021/04/17 00:33:52;;;;;;;1999.90;999.90;;;17.80;74.50;;;;;;5053225;28;20180;-49
2021/04/17 00:36:19;;;;;;;1999.90;999.90;;;17.80;74.50;;;;;;5052967;28;20169;-50
2021/04/17 00:38:46;;;;;;;1999.90;999.90;;;17.70;74.80;;;;;;5052821;28;20288;-51
2021/04/17 00:41:13;;;;;;;1999.90;999.90;;;17.70;75.10;;;;;;5052852;28;20294;-61
2021/04/17 00:43:40;;;;;;;1999.90;999.90;;;17.60;76.10;;;;;;5053005;28;20218;-57
2021/04/17 00:46:07;;;;;;;1999.90;999.90;;;17.60;76.40;;;;;;5052824;28;20260;-55
2021/04/17 00:48:34;;;;;;;1999.90;999.90;;;17.60;76.30;;;;;;5052951;28;20171;-49
2021/04/17 00:51:01;;;;;;;1999.90;999.90;;;17.50;76.00;;;;;;5052742;28;20166;-49
2021/04/17 00:53:28;;;;;;;1999.90;999.90;;;17.50;76.70;;;;;;5052735;28;20218;-55
2021/04/17 00:55:55;;;;;;;1999.90;999.90;;;17.50;77.00;;;;;;5052667;28;20169;-56
2021/04/17 00:58:22;;;;;;;1999.90;999.90;;;17.50;77.30;;;;;;5052485;28;20584;-53
2021/04/17 01:00:49;;;;;;;1999.90;999.90;;;17.40;77.50;;;;;;5052591;28;20206;-58
2021/04/17 01:03:28;;;;;;;1999.90;999.90;;;17.30;80.00;;;;;;5052495;28;20162;-53
2021/04/17 01:06:02;;;;;;;1999.90;999.90;;;17.20;81.80;;;;;;5052571;28;20169;-43
2021/04/17 01:08:54;;;;;;;1999.90;999.90;;;17.20;82.90;;;;;;5052467;28;20150;-58
2021/04/17 01:11:56;;;;;;;1999.90;999.90;;;17.10;83.50;;;;;;5052519;28;20150;-46
2021/04/17 01:14:24;;;;;;;1999.90;999.90;;;17.10;84.20;;;;;;5073812;28;20192;-51
2021/04/17 01:16:52;;;;;;;1999.90;999.90;;;17.00;84.90;;;;;;5052348;28;20172;-56
2021/04/17 01:19:45;;;;;;;1999.90;999.90;;;16.90;85.10;;;;;;5051661;28;20277;-48
2021/04/17 01:22:16;;;;;;;1999.90;999.90;;;17.00;85.50;;;;;;5049902;28;20260;-59
2021/04/17 01:24:48;;;;;;;1999.90;999.90;;;17.00;85.40;;;;;;5051397;28;20520;-49
2021/04/17 01:27:15;;;;;;;1999.90;999.90;;;16.90;86.00;;;;;;5050697;28;20501;-43
2021/04/17 01:29:43;;;;;;;1999.90;999.90;;;16.80;86.40;;;;;;5050937;28;20177;-51
2021/04/17 01:32:13;;;;;;;1999.90;999.90;;;16.80;86.10;;;;;;5051057;28;20165;-39
2021/04/17 01:34:45;;;;;;;1999.90;999.90;;;16.80;83.00;;;;;;5051036;28;20508;-50
2021/04/17 01:37:13;;;;;;;1999.90;999.90;;;16.80;81.60;;;;;;5050858;28;20654;-55
2021/04/17 01:39:41;;;;;;;1999.90;999.90;;;16.70;81.00;;;;;;5050995;28;20202;-55
2021/04/17 01:42:11;;;;;;;1999.90;999.90;;;16.60;80.20;;;;;;5051003;28;20189;-52
2021/04/17 01:44:45;;;;;;;1999.90;999.90;;;16.50;80.20;;;;;;5050957;28;20176;-40
2021/04/17 01:47:15;;;;;;;1999.90;999.90;;;16.40;80.90;;;;;;5050876;28;20248;-56
2021/04/17 01:49:48;;;;;;;1999.90;999.90;;;16.40;81.60;;;;;;5050761;28;20314;-46
2021/04/17 01:52:20;;;;;;;1999.90;999.90;;;16.30;82.00;;;;;;5050609;28;20180;-51
2021/04/17 01:54:52;;;;;;;1999.90;999.90;;;16.30;82.20;;;;;;5050822;28;20146;-41
2021/04/17 01:57:23;;;;;;;1999.90;999.90;;;16.30;82.30;;;;;;5050644;28;20193;-53
2021/04/17 01:59:50;;;;;;;1999.90;999.90;;;16.30;81.90;;;;;;5050714;28;20172;-40
2021/04/17 02:02:18;;;;;;;1999.90;999.90;;;16.20;82.10;;;;;;5050620;28;20169;-56
2021/04/17 02:04:45;;;;;;;1999.90;999.90;;;16.20;82.30;;;;;;5050645;28;20201;-47
2021/04/17 02:07:13;;;;;;;1999.90;999.90;;;16.20;82.40;;;;;;5050640;28;20252;-56
2021/04/17 02:09:40;;;;;;;1999.90;999.90;;;16.20;83.00;;;;;;5050643;28;20691;-55
2021/04/17 02:12:08;;;;;;;1999.90;999.90;;;16.10;84.10;;;;;;5050512;28;20170;-58
2021/04/17 02:14:35;;;;;;;1999.90;999.90;;;16.20;84.70;;;;;;5050474;28;20173;-57
2021/04/17 02:17:13;;;;;;;1999.90;999.90;;;16.20;84.80;;;;;;5050355;28;20719;-53
2021/04/17 02:19:45;;;;;;;1999.90;999.90;;;16.20;85.10;;;;;;4952278;28;2787062;-50
2021/04/17 02:22:12;;;;;;;1999.90;999.90;;;16.20;85.50;;;;;;5051598;28;20530;-49
2021/04/17 02:24:41;;;;;;;1999.90;999.90;;;16.20;85.50;;;;;;5051411;28;20505;-50
2021/04/17 02:27:08;;;;;;;1999.90;999.90;;;16.20;85.30;;;;;;5051299;28;20711;-52
2021/04/17 02:29:36;;;;;;;1999.90;999.90;;;16.20;85.40;;;;;;5051214;28;20229;-50
2021/04/17 02:32:03;;;;;;;1999.90;999.90;;;16.20;85.80;;;;;;5051200;28;20716;-57
2021/04/17 02:34:30;;;;;;;1999.90;999.90;;;16.20;86.00;;;;;;5051165;28;20179;-44
2021/04/17 02:36:56;;;;;;;1999.90;999.90;;;16.20;86.10;;;;;;5051086;28;20165;-56
2021/04/17 02:39:23;;;;;;;1999.90;999.90;;;16.20;86.10;;;;;;5050185;28;20181;-52
2021/04/17 02:41:50;;;;;;;1999.90;999.90;;;16.20;86.40;;;;;;5050896;28;20201;-50
2021/04/17 02:44:17;;;;;;;1999.90;999.90;;;16.20;85.80;;;;;;5050989;28;20188;-43
2021/04/17 02:46:43;;;;;;;1999.90;999.90;;;16.20;85.70;;;;;;5051045;28;20169;-45
2021/04/17 02:49:10;;;;;;;1999.90;999.90;;;16.20;85.90;;;;;;5050849;28;20507;-56
2021/04/17 02:51:37;;;;;;;1999.90;999.90;;;16.20;85.60;;;;;;5050843;28;20241;-57
2021/04/17 02:54:04;;;;;;;1999.90;999.90;;;16.10;84.80;;;;;;5050798;28;20174;-49
2021/04/17 02:56:31;;;;;;;1999.90;999.90;;;16.10;84.50;;;;;;5050811;28;20176;-58
2021/04/17 02:58:58;;;;;;;1999.90;999.90;;;16.10;84.50;;;;;;5050739;28;20674;-54
2021/04/17 03:01:25;;;;;;;1999.90;999.90;;;16.20;84.50;;;;;;5050710;28;20317;-55
2021/04/17 03:03:52;;;;;;;1999.90;999.90;;;16.20;84.20;;;;;;5050737;28;20177;-46
2021/04/17 03:06:19;;;;;;;1999.90;999.90;;;16.20;84.00;;;;;;5050620;28;20166;-51
2021/04/17 03:08:45;;;;;;;1999.90;999.90;;;16.20;83.60;;;;;;5050754;28;20185;-49
2021/04/17 03:11:12;;;;;;;1999.90;999.90;;;16.20;84.00;;;;;;5050499;28;20599;-57
2021/04/17 03:13:39;;;;;;;1999.90;999.90;;;16.20;82.90;;;;;;5050568;28;20169;-55
2021/04/17 03:16:07;;;;;;;1999.90;999.90;;;16.20;82.60;;;;;;5050545;28;20174;-60
2021/04/17 03:18:34;;;;;;;1999.90;999.90;;;16.20;82.10;;;;;;5050384;28;20193;-56
2021/04/17 03:21:00;;;;;;;1999.90;999.90;;;16.30;81.50;;;;;;5050278;28;20217;-54
2021/04/17 03:23:27;;;;;;;1999.90;999.90;;;16.30;81.20;;;;;;5050422;28;20285;-47
2021/04/17 03:25:54;;;;;;;1999.90;999.90;;;16.30;81.50;;;;;;5050342;28;20157;-51
2021/04/17 03:28:21;;;;;;;1999.90;999.90;;;16.40;81.60;;;;;;5050355;28;20699;-56
2021/04/17 03:30:48;;;;;;;1999.90;999.90;;;16.20;81.60;;;;;;5050425;28;20649;-54
2021/04/17 03:33:15;;;;;;;1999.90;999.90;;;16.10;81.90;;;;;;5050453;28;20576;-45
2021/04/17 03:35:41;;;;;;;1999.90;999.90;;;16.00;82.00;;;;;;5050194;28;20197;-57
2021/04/17 03:38:08;;;;;;;1999.90;999.90;;;16.00;82.90;;;;;;5050152;28;20204;-58
2021/04/17 03:40:35;;;;;;;1999.90;999.90;;;16.00;83.10;;;;;;5050174;28;20181;-43
2021/04/17 03:43:02;;;;;;;1999.90;999.90;;;16.00;83.00;;;;;;5050117;28;20210;-59
2021/04/17 03:45:29;;;;;;;1999.90;999.90;;;16.00;82.90;;;;;;5050123;28;20204;-51
2021/04/17 03:47:56;;;;;;;1999.90;999.90;;;15.90;83.20;;;;;;5049950;28;20523;-60
2021/04/17 03:50:23;;;;;;;1999.90;999.90;;;15.90;83.60;;;;;;5049899;28;20162;-53
2021/04/17 03:52:50;;;;;;;1999.90;999.90;;;15.90;83.50;;;;;;5050122;28;20196;-59
2021/04/17 03:55:17;;;;;;;1999.90;999.90;;;15.90;82.70;;;;;;5050180;28;20252;-41
2021/04/17 03:57:45;;;;;;;1999.90;999.90;;;15.90;81.70;;;;;;5049884;28;20189;-54
2021/04/17 04:00:17;;;;;;;1999.90;999.90;;;15.90;81.20;;;;;;5049902;28;20201;-48
2021/04/17 04:02:45;;;;;;;1999.90;999.90;;;15.80;81.40;;;;;;5049972;28;20161;-50
2021/04/17 04:05:13;;;;;;;1999.90;999.90;;;15.80;81.80;;;;;;5049809;28;20173;-55
2021/04/17 04:07:41;;;;;;;1999.90;999.90;;;15.70;81.90;;;;;;5049848;28;20255;-48
2021/04/17 04:10:10;;;;;;;1999.90;999.90;;;15.60;83.00;;;;;;5049714;28;20181;-48
2021/04/17 04:12:36;;;;;;;1999.90;999.90;;;15.50;83.80;;;;;;5050061;28;20663;-56
2021/04/17 04:15:05;;;;;;;1999.90;999.90;;;15.50;83.80;;;;;;5049614;28;20248;-54
2021/04/17 04:17:32;;;;;;;1999.90;999.90;;;15.50;83.30;;;;;;5047997;28;20220;-56
2021/04/17 04:19:58;;;;;;;1999.90;999.90;;;15.40;82.50;;;;;;5049284;28;20689;-52
2021/04/17 04:22:25;;;;;;;1999.90;999.90;;;15.40;82.80;;;;;;5049341;28;20188;-47
2021/04/17 04:24:52;;;;;;;1999.90;999.90;;;15.40;82.60;;;;;;5049492;28;20218;-53
2021/04/17 04:27:19;;;;;;;1999.90;999.90;;;15.40;82.50;;;;;;5049468;28;20169;-58
2021/04/17 04:29:46;;;;;;;1999.90;999.90;;;15.30;82.70;;;;;;5049205;28;20222;-48
2021/04/17 04:32:13;;;;;;;1999.90;999.90;;;15.30;83.40;;;;;;5049254;28;20180;-41
2021/04/17 04:34:39;;;;;;;1999.90;999.90;;;15.40;83.20;;;;;;5049111;28;20204;-42
2021/04/17 04:37:06;;;;;;;1999.90;999.90;;;15.40;83.30;;;;;;5049099;28;20208;-57
2021/04/17 04:39:33;;;;;;;1999.90;999.90;;;15.40;83.60;;;;;;5049176;28;20184;-42
2021/04/17 04:42:00;;;;;;;1999.90;999.90;;;15.40;84.30;;;;;;5049112;28;20181;-55
2021/04/17 04:44:27;;;;;;;1999.90;999.90;;;15.40;85.10;;;;;;5049071;28;20169;-47
2021/04/17 04:46:54;;;;;;;1999.90;999.90;;;15.40;86.80;;;;;;5049064;28;20209;-43
2021/04/17 04:49:21;;;;;;;1999.90;999.90;;;15.40;88.00;;;;;;5049175;28;20180;-39
2021/04/17 04:51:48;;;;;;;1999.90;999.90;;;15.40;88.70;;;;;;5048992;28;20169;-47
2021/04/17 04:54:15;;;;;;;1999.90;999.90;;;15.40;89.60;;;;;;5048943;28;20624;-37
2021/04/17 04:56:41;;;;;;;1999.90;999.90;;;15.30;90.30;;;;;;5048967;28;20166;-53
2021/04/17 04:59:08;;;;;;;1999.90;999.90;;;15.30;90.30;;;;;;5048760;28;20202;-56
2021/04/17 05:01:35;;;;;;;1999.90;999.90;;;15.30;89.90;;;;;;5049773;28;20261;-49
2021/04/17 05:04:02;;;;;;;1999.90;999.90;;;15.30;89.90;;;;;;5052292;28;20252;-58
2021/04/17 05:06:29;;;;;;;1999.90;999.90;;;15.20;90.10;;;;;;5052148;28;20596;-56
2021/04/17 05:08:56;;;;;;;1999.90;999.90;;;15.10;90.40;;;;;;5052421;28;20177;-51
2021/04/17 05:11:22;;;;;;;1999.90;999.90;;;15.10;90.30;;;;;;5052166;28;20225;-50
2021/04/17 05:13:50;;;;;;;1999.90;999.90;;;15.20;90.20;;;;;;5052184;28;20169;-54
2021/04/17 05:16:17;;;;;;;1999.90;999.90;;;15.30;90.10;;;;;;5052136;28;20732;-54
2021/04/17 05:18:44;;;;;;;1999.90;999.90;;;15.30;89.80;;;;;;5051806;28;20288;-49
2021/04/17 05:21:11;;;;;;;1999.90;999.90;;;15.40;89.80;;;;;;5052165;28;20161;-57
2021/04/17 05:23:38;;;;;;;1999.90;999.90;;;15.40;89.70;;;;;;5052052;28;20631;-44
2021/04/17 05:26:05;;;;;;;1999.90;999.90;;;15.40;89.60;;;;;;5052052;27;20509;-47
2021/04/17 05:28:31;;;;;;;1999.90;999.90;;;15.40;89.70;;;;;;5051927;28;20177;-57
2021/04/17 05:30:58;;;;;;;1999.90;999.90;;;15.40;89.40;;;;;;5052015;28;20252;-43
2021/04/17 05:33:25;;;;;;;1999.90;999.90;;;15.30;90.10;;;;;;5052016;28;20180;-52
2021/04/17 05:35:52;;;;;;;1999.90;999.90;;;15.20;90.50;;;;;;5051869;28;20206;-57
2021/04/17 05:38:19;;;;;;;1999.90;999.90;;;15.20;90.80;;;;;;5051565;28;20209;-49
2021/04/17 05:40:46;;;;;;;1999.90;999.90;;;15.10;91.00;;;;;;5051722;28;20193;-57
2021/04/17 05:43:13;;;;;;;1999.90;999.90;;;15.20;90.90;;;;;;5051657;28;20195;-46
2021/04/17 05:45:40;;;;;;;1999.90;999.90;;;15.10;90.80;;;;;;5051664;28;20244;-42
2021/04/17 05:48:07;;;;;;;1999.90;999.90;;;15.20;90.80;;;;;;5051581;28;20221;-43
2021/04/17 05:50:34;;;;;;;1999.90;999.90;;;15.20;90.90;;;;;;5051590;28;20165;-40
2021/04/17 05:53:01;;;;;;;1999.90;999.90;;;15.20;90.80;;;;;;5050169;28;20534;-36
2021/04/17 05:55:28;;;;;;;1999.90;999.90;;;15.20;90.50;;;;;;5051671;28;20654;-44
2021/04/17 05:57:55;;;;;;;1999.90;999.90;;;15.30;90.60;;;;;;5051319;28;20297;-39
2021/04/17 06:00:22;;;;;;;1999.90;999.90;;;15.40;90.10;;;;;;5051470;28;20185;-41
2021/04/17 06:02:53;;;;;;;1999.90;999.90;;;15.50;89.90;;;;;;5051357;28;20572;-50
2021/04/17 06:05:20;;;;;;;1999.90;999.90;;;15.60;89.50;;;;;;5051628;28;20270;-55
2021/04/17 06:07:46;;;;;;;1999.90;999.90;;;15.70;88.60;;;;;;5051309;28;20261;-49
2021/04/17 06:10:14;;;;;;;1999.90;999.90;;;15.80;87.50;;;;;;5051220;28;20185;-49
2021/04/17 06:12:41;;;;;;;1999.90;999.90;;;15.90;86.50;;;;;;5050376;28;20169;-46
2021/04/17 06:15:08;;;;;;;1999.90;999.90;;;15.90;85.90;;;;;;5050770;28;20648;-43
2021/04/17 06:17:35;;;;;;;1999.90;999.90;;;16.00;84.80;;;;;;5051091;28;20205;-38
2021/04/17 06:20:03;;;;;;;1999.90;999.90;;;16.10;84.50;;;;;;5050978;28;20812;-53
2021/04/17 06:22:30;;;;;;;1999.90;999.90;;;16.20;84.20;;;;;;5051041;28;20203;-37
2021/04/17 06:24:57;;;;;;;1999.90;999.90;;;16.30;83.20;;;;;;5051013;28;20176;-56
2021/04/17 06:27:24;;;;;;;1999.90;999.90;;;16.40;83.50;;;;;;5050979;28;20182;-48
2021/04/17 06:29:51;;;;;;;1999.90;999.90;;;16.40;83.50;;;;;;5050964;28;20169;-47
2021/04/17 06:32:18;;;;;;;1999.90;999.90;;;16.60;83.40;;;;;;5050945;28;20169;-44
2021/04/17 06:34:45;;;;;;;1999.90;999.90;;;16.70;82.90;;;;;;5050793;28;20234;-44
2021/04/17 06:37:12;;;;;;;1999.90;999.90;;;16.70;82.80;;;;;;5050791;28;20623;-59
2021/04/17 06:39:39;;;;;;;1999.90;999.90;;;16.90;82.10;;;;;;5050749;28;20196;-55
2021/04/17 06:42:12;;;;;;;1999.90;999.90;;;17.00;81.20;;;;;;5049389;28;20255;-37
2021/04/17 06:44:43;;;;;;;1999.90;999.90;;;17.10;80.80;;;;;;5050601;28;20192;-41
2021/04/17 06:47:16;;;;;;;1999.90;999.90;;;17.20;80.80;;;;;;5050774;28;20154;-47
2021/04/17 06:49:43;;;;;;;1999.90;999.90;;;17.30;80.40;;;;;;5050627;28;20353;-47
2021/04/17 06:52:11;;;;;;;1999.90;999.90;;;17.60;79.00;;;;;;5050529;28;20165;-39
2021/04/17 06:54:39;;;;;;;1999.90;999.90;;;17.80;78.20;;;;;;5050576;28;20546;-39
2021/04/17 06:57:07;;;;;;;1999.90;999.90;;;17.90;77.70;;;;;;5050544;28;20222;-41
2021/04/17 06:59:34;;;;;;;1999.90;999.90;;;18.10;76.90;;;;;;5050733;28;20173;-39
2021/04/17 07:02:01;;;;;;;1999.90;999.90;;;18.20;76.80;;;;;;5050301;28;20165;-38
2021/04/17 07:04:29;;;;;;;1999.90;999.90;;;18.40;76.50;;;;;;5050400;28;20168;-41
2021/04/17 07:06:56;;;;;;;1999.90;999.90;;;18.50;75.40;;;;;;5050184;28;20165;-38
2021/04/17 07:09:23;;;;;;;1999.90;999.90;;;18.70;74.40;;;;;;5050146;28;20181;-51
2021/04/17 07:11:50;;;;;;;1999.90;999.90;;;18.90;74.00;;;;;;5050071;28;20166;-49
2021/04/17 07:14:18;;;;;;;1999.90;999.90;;;19.00;74.30;;;;;;5050193;28;20174;-45
2021/04/17 07:17:02;;;;;;;1999.90;999.90;;;19.20;73.40;;;;;;5050394;28;20180;-51
2021/04/17 07:19:59;;;;;;;1999.90;999.90;;;19.30;73.60;;;;;;5049777;28;20225;-45
2021/04/17 07:22:28;;;;;;;1999.90;999.90;;;19.50;71.30;;;;;;5050259;28;20474;-44
2021/04/17 07:25:17;;;;;;;1999.90;999.90;;;19.60;70.50;;;;;;5049943;28;20333;-44
2021/04/17 07:27:48;;;;;;;1999.90;999.90;;;19.80;70.00;;;;;;5050044;28;20630;-57
2021/04/17 07:30:15;;;;;;;1999.90;999.90;;;19.90;68.40;;;;;;5049913;28;20176;-57
2021/04/17 07:33:04;;;;;;;1999.90;999.90;;;20.20;66.20;;;;;;5049749;28;20192;-51
2021/04/17 07:35:39;;;;;;;1999.90;999.90;;;20.40;63.90;;;;;;5048391;28;20282;-49
2021/04/17 07:38:20;;;;;;;1999.90;999.90;;;20.70;62.30;;;;;;5049428;28;20236;-41
2021/04/17 07:41:08;;;;;;;1999.90;999.90;;;21.00;59.60;;;;;;5049534;28;20196;-44
2021/04/17 07:43:46;;;;;;;1999.90;999.90;;;21.20;59.60;;;;;;5049578;28;20601;-51
2021/04/17 07:46:13;;;;;;;1999.90;999.90;;;21.70;57.80;;;;;;5049402;28;20229;-40
2021/04/17 07:48:40;;;;;;;1999.90;999.90;;;21.90;56.80;;;;;;5049619;28;20516;-52
2021/04/17 07:51:08;;;;;;;1999.90;999.90;;;22.30;55.00;;;;;;5049470;28;20185;-60
2021/04/17 07:53:40;;;;;;;1999.90;999.90;;;22.60;53.30;;;;;;5048091;28;20177;-57
2021/04/17 07:56:26;;;;;;;1999.90;999.90;;;22.90;52.70;;;;;;5049564;28;20515;-41
2021/04/17 07:59:05;;;;;;;1999.90;999.90;;;23.30;51.30;;;;;;5049190;28;20205;-51
2021/04/17 08:01:33;;;;;;;1999.90;999.90;;;23.60;51.30;;;;;;5049463;28;20608;-54
2021/04/17 08:04:02;;;;;;;1999.90;999.90;;;23.90;50.80;;;;;;5049398;28;20623;-42
2021/04/17 08:06:30;;;;;;;1999.90;999.90;;;24.20;47.80;;;;;;5049421;28;20318;-47
2021/04/17 08:09:00;;;;;;;1999.90;999.90;;;24.50;47.00;;;;;;5049404;28;20229;-38
2021/04/17 08:11:29;;;;;;;1999.90;999.90;;;24.80;46.20;;;;;;5049229;28;20252;-49
2021/04/17 08:13:58;;;;;;;1999.90;999.90;;;25.00;45.70;;;;;;5049479;28;20180;-42
2021/04/17 08:16:25;;;;;;;1999.90;999.90;;;25.60;44.80;;;;;;5049235;28;20298;-53
2021/04/17 08:18:52;;;;;;;1999.90;999.90;;;26.20;43.40;;;;;;5049022;28;20561;-42
2021/04/17 08:21:20;;;;;;;1999.90;999.90;;;26.70;41.60;;;;;;5049243;28;20162;-41
2021/04/17 08:23:50;;;;;;;1999.90;999.90;;;27.20;40.40;;;;;;5049108;28;20177;-48
2021/04/17 08:26:18;;;;;;;1999.90;999.90;;;27.70;39.60;;;;;;5049101;28;20252;-39
2021/04/17 08:28:48;;;;;;;1999.90;999.90;;;27.90;38.50;;;;;;5049270;28;20169;-45
2021/04/17 08:31:22;;;;;;;1999.90;999.90;;;28.60;38.10;;;;;;5049048;28;20165;-48
2021/04/17 08:34:20;;;;;;;1999.90;999.90;;;29.20;35.40;;;;;;5049011;28;20254;-49
2021/04/17 08:36:52;;;;;;;1999.90;999.90;;;29.50;33.90;;;;;;5050258;28;20306;-50
2021/04/17 08:39:37;;;;;;;1999.90;999.90;;;29.70;32.50;;;;;;5052353;28;20204;-57
2021/04/17 08:42:06;;;;;;;1999.90;999.90;;;30.10;32.40;;;;;;5052442;28;20174;-52
2021/04/17 08:45:07;;;;;;;1999.90;999.90;;;30.30;31.50;;;;;;5052435;28;20624;-62
2021/04/17 08:47:47;;;;;;;1999.90;999.90;;;30.90;30.60;;;;;;5052419;28;20172;-45
2021/04/17 08:50:33;;;;;;;1999.90;999.90;;;30.90;29.70;;;;;;5052476;28;20170;-46
2021/04/17 08:53:03;;;;;;;1999.90;999.90;;;31.20;29.00;;;;;;5052281;28;20165;-49
2021/04/17 08:55:39;;;;;;;1999.90;999.90;;;31.00;28.80;;;;;;5052080;28;20177;-48
2021/04/17 08:58:22;;;;;;;1999.90;999.90;;;30.90;28.70;;;;;;5052027;28;20200;-43
2021/04/17 09:00:51;;;;;;;1999.90;999.90;;;31.00;29.00;;;;;;5052438;28;20261;-61
2021/04/17 09:03:42;;;;;;;1999.90;999.90;;;31.50;28.40;;;;;;5052251;28;20181;-50
2021/04/17 09:06:29;;;;;;;1999.90;999.90;;;31.80;27.80;;;;;;5052119;28;20157;-54
2021/04/17 09:09:19;;;;;;;1999.90;999.90;;;31.90;27.80;;;;;;5058639;28;20185;-44
2021/04/17 09:11:47;;;;;;;1999.90;999.90;;;32.50;27.70;;;;;;5052353;28;20614;-61
2021/04/17 09:14:30;;;;;;;1999.90;999.90;;;32.80;27.10;;;;;;5052017;28;20182;-55
2021/04/17 09:17:06;;;;;;;1999.90;999.90;;;33.00;26.80;;;;;;5051680;28;20161;-59
2021/04/17 09:19:39;;;;;;;1999.90;999.90;;;32.90;27.10;;;;;;5051346;28;20229;-58
2021/04/17 09:22:34;;;;;;;1999.90;999.90;;;33.20;26.80;;;;;;5051799;28;20165;-51
2021/04/17 09:25:35;;;;;;;1999.90;999.90;;;33.30;26.50;;;;;;5051791;28;20154;-52
2021/04/17 09:28:02;;;;;;;1999.90;999.90;;;33.70;26.50;;;;;;5051552;28;20165;-50
2021/04/17 09:30:29;;;;;;;1999.90;999.90;;;33.60;26.00;;;;;;5051429;28;20169;-55
2021/04/17 09:32:58;;;;;;;1999.90;999.90;;;34.00;26.90;;;;;;5051320;28;20525;-52
2021/04/17 09:35:36;;;;;;;1999.90;999.90;;;33.80;25.80;;;;;;5051437;28;20549;-59
2021/04/17 09:38:18;;;;;;;1999.90;999.90;;;33.60;25.90;;;;;;5051338;28;20197;-53
2021/04/17 09:40:52;;;;;;;1999.90;999.90;;;33.70;26.10;;;;;;5051438;28;20165;-51
2021/04/17 09:43:27;;;;;;;1999.90;999.90;;;34.20;26.00;;;;;;5051484;28;20157;-53
2021/04/17 09:45:55;;;;;;;1999.90;999.90;;;34.50;24.50;;;;;;5051066;28;20173;-46
2021/04/17 09:48:23;;;;;;;1999.90;999.90;;;34.10;25.10;;;;;;5051004;28;20181;-58
2021/04/17 09:50:57;;;;;;;1999.90;999.90;;;34.20;25.00;;;;;;5051480;28;20253;-59
2021/04/17 09:53:31;;;;;;;1999.90;999.90;;;34.50;25.20;;;;;;5051181;28;20165;-57
2021/04/17 09:56:07;;;;;;;1999.90;999.90;;;34.20;24.60;;;;;;5051120;28;20241;-60
2021/04/17 09:58:41;;;;;;;1999.90;999.90;;;34.20;24.80;;;;;;5051104;28;20193;-63
2021/04/17 10:01:19;;;;;;;1999.90;999.90;;;34.20;25.00;;;;;;5050893;28;20176;-55
2021/04/17 10:03:57;;;;;;;1999.90;999.90;;;34.10;24.70;;;;;;5051120;28;20173;-50
2021/04/17 10:06:27;;;;;;;1999.90;999.90;;;34.10;24.30;;;;;;5051126;28;20162;-46
2021/04/17 10:08:55;;;;;;;1999.90;999.90;;;34.10;24.20;;;;;;5051212;28;20169;-61
2021/04/17 10:11:28;;;;;;;1999.90;999.90;;;34.30;23.50;;;;;;5051058;28;20165;-39
2021/04/17 10:13:56;;;;;;;1999.90;999.90;;;34.30;23.90;;;;;;5051008;28;20173;-55
2021/04/17 10:16:31;;;;;;;1999.90;999.90;;;34.40;22.00;;;;;;5050885;28;20177;-39
2021/04/17 10:19:02;;;;;;;1999.90;999.90;;;34.20;21.30;;;;;;5050649;28;20232;-62
2021/04/17 10:21:31;;;;;;;1999.90;999.90;;;34.20;21.90;;;;;;5050820;28;20567;-53
2021/04/17 10:24:17;;;;;;;1999.90;999.90;;;34.40;21.00;;;;;;5050814;28;20177;-62
2021/04/17 10:27:09;;;;;;;1999.90;999.90;;;34.50;21.60;;;;;;5050831;28;20685;-61
2021/04/17 10:29:38;;;;;;;1999.90;999.90;;;34.80;20.90;;;;;;5050678;28;20639;-45
2021/04/17 10:32:13;;;;;;;1999.90;999.90;;;34.80;21.20;;;;;;5050482;28;20185;-58
2021/04/17 10:34:46;;;;;;;1999.90;999.90;;;34.70;21.50;;;;;;5050608;28;20608;-55
2021/04/17 10:37:24;;;;;;;1999.90;999.90;;;34.60;21.40;;;;;;5050956;28;20161;-48
2021/04/17 10:40:05;;;;;;;1999.90;999.90;;;34.60;21.10;;;;;;5049595;28;20177;-67
2021/04/17 10:42:52;;;;;;;1999.90;999.90;;;34.90;20.50;;;;;;5050600;28;20153;-40
2021/04/17 10:45:21;;;;;;;1999.90;999.90;;;35.00;21.30;;;;;;5050667;28;20204;-65
2021/04/17 10:48:19;;;;;;;1999.90;999.90;;;35.20;22.00;;;;;;5050473;28;20176;-49
2021/04/17 10:50:59;;;;;;;1999.90;999.90;;;35.20;22.70;;;;;;5050363;28;20173;-65
2021/04/17 10:53:49;;;;;;;1999.90;999.90;;;35.40;22.80;;;;;;5050400;28;20563;-58
2021/04/17 10:56:18;;;;;;;1999.90;999.90;;;35.10;22.80;;;;;;5050342;28;20182;-49
2021/04/17 10:58:48;;;;;;;1999.90;999.90;;;35.10;23.00;;;;;;5049827;28;20197;-50
2021/04/17 11:01:22;;;;;;;1999.90;999.90;;;35.00;22.60;;;;;;5050200;28;20178;-60
2021/04/17 11:03:52;;;;;;;1999.90;999.90;;;34.90;22.30;;;;;;5050362;28;20196;-60
2021/04/17 11:06:24;;;;;;;1999.90;999.90;;;34.80;21.90;;;;;;5050219;28;20189;-59
2021/04/17 11:09:10;;;;;;;1999.90;999.90;;;34.80;22.30;;;;;;5050312;28;20196;-62
2021/04/17 11:11:50;;;;;;;1999.90;999.90;;;34.70;22.20;;;;;;5050156;28;20180;-54
2021/04/17 11:14:21;;;;;;;1999.90;999.90;;;34.60;22.00;;;;;;5050252;28;20188;-57
2021/04/17 11:16:51;;;;;;;1999.90;999.90;;;34.50;22.30;;;;;;5050198;28;20224;-47
2021/04/17 11:19:29;;;;;;;1999.90;999.90;;;34.50;22.40;;;;;;5049814;28;20251;-63
2021/04/17 11:22:12;;;;;;;1999.90;999.90;;;34.60;21.90;;;;;;5050211;28;20165;-41
2021/04/17 11:25:04;;;;;;;1999.90;999.90;;;35.00;21.40;;;;;;5048740;28;20583;-52
2021/04/17 11:27:31;;;;;;;1999.90;999.90;;;35.10;20.90;;;;;;5050093;28;20241;-58
2021/04/17 11:29:59;;;;;;;1999.90;999.90;;;35.10;21.30;;;;;;5050005;28;20225;-38
2021/04/17 11:32:26;;;;;;;1999.90;999.90;;;35.30;20.60;;;;;;5050000;28;20184;-42
2021/04/17 11:34:53;;;;;;;1999.90;999.90;;;35.30;21.10;;;;;;5049850;28;20526;-47
2021/04/17 11:37:21;;;;;;;1999.90;999.90;;;35.40;20.70;;;;;;5049812;28;20631;-48
2021/04/17 11:39:48;;;;;;;1999.90;999.90;;;35.40;20.90;;;;;;5049704;28;20177;-40
2021/04/17 11:42:17;;;;;;;1999.90;999.90;;;35.10;20.80;;;;;;5049722;28;20215;-42
2021/04/17 11:44:47;;;;;;;1999.90;999.90;;;35.20;20.40;;;;;;5049637;28;20182;-40
2021/04/17 11:47:15;;;;;;;1999.90;999.90;;;35.30;20.20;;;;;;5049610;28;20186;-58
2021/04/17 11:49:42;;;;;;;1999.90;999.90;;;35.50;19.90;;;;;;5049636;28;20654;-56
2021/04/17 11:52:09;;;;;;;1999.90;999.90;;;35.50;20.60;;;;;;5049653;28;20161;-45
2021/04/17 11:54:36;;;;;;;1999.90;999.90;;;35.30;21.00;;;;;;5049560;28;20210;-61
2021/04/17 11:57:04;;;;;;;1999.90;999.90;;;35.40;21.00;;;;;;5049586;28;20169;-62
2021/04/17 11:59:31;;;;;;;1999.90;999.90;;;35.30;21.20;;;;;;5049513;28;20687;-39
2021/04/17 12:01:58;;;;;;;1999.90;999.90;;;35.50;20.90;;;;;;5049648;28;20192;-42
2021/04/17 12:04:24;;;;;;;1999.90;999.90;;;35.50;20.70;;;;;;5049406;28;20195;-52
2021/04/17 12:06:52;;;;;;;1999.90;999.90;;;35.60;20.50;;;;;;5049465;28;20169;-52
2021/04/17 12:09:19;;;;;;;1999.90;999.90;;;35.80;19.90;;;;;;5049315;28;20541;-62
2021/04/17 12:11:49;;;;;;;1999.90;999.90;;;35.70;19.60;;;;;;5052118;28;20199;-51
2021/04/17 12:14:16;;;;;;;1999.90;999.90;;;35.70;18.40;;;;;;5052929;28;20173;-51
2021/04/17 12:16:43;;;;;;;1999.90;999.90;;;35.50;19.00;;;;;;5052983;28;20161;-49